Terminal Aerodrome Forecast
Issued by NWS

Home | Current Version | Previous Version | Text Only | Print | Product List | Glossary Off
Versions: 1 2 3 4 5 6 7 8 9 10 11 12 13 14

540
FTUS43 KIWX 300819 AAA
TAFSBN
TAF AMD
KSBN 300819Z 3008/0106 22006KT P6SM SKC
      TEMPO 3008/3011 BKN012
     FM301900 25011KT P6SM BKN040=

USA.gov is the U.S. government's official web portal to all federal, state and local government web resources and services.